Time;durP1;ratioP1;P1;durP2;ratioP2;P2;SDS_P1;SDS_P2;PMS_P1;PMS_P2;Temp;Humidity;BMP_temperature;BMP_pressure;BME280_temperature;BME280_humidity;BME280_pressure;Samples;Min_cycle;Max_cycle;Signal;HPM_P1;HPM_P2
2022/10/06 00:02:40;;;;;;;5.35;2.20;;;;;;;;;;8271777;28;20050;-62
2022/10/06 00:06:40;;;;;;;5.35;2.50;;;;;;;;;;8273244;28;20784;-62
2022/10/06 00:10:40;;;;;;;3.43;2.30;;;;;;;;;;8273278;28;20137;-63
2022/10/06 00:14:40;;;;;;;6.07;2.30;;;;;;;;;;8271776;28;20020;-63
2022/10/06 00:18:41;;;;;;;4.65;2.50;;;;;;;;;;8270130;28;20044;-62
2022/10/06 00:22:42;;;;;;;8.48;2.17;;;;;;;;;;8271383;28;20613;-63
2022/10/06 00:26:42;;;;;;;3.72;2.30;;;;;;;;;;8272823;28;20030;-62
2022/10/06 00:30:44;;;;;;;4.68;2.63;;;;;;;;;;8269137;28;20092;-62
2022/10/06 00:34:45;;;;;;;5.47;2.83;;;;;;;;;;8271718;28;20026;-63
2022/10/06 00:38:45;;;;;;;5.95;2.80;;;;;;;;;;8271489;28;20026;-62
2022/10/06 00:42:50;;;;;;;7.28;2.60;;;;;;;;;;8274525;28;20025;-63
2022/10/06 00:46:52;;;;;;;5.28;2.75;;;;;;;;;;8272176;28;20135;-63
2022/10/06 00:50:55;;;;;;;5.10;2.50;;;;;;;;;;8270582;28;20025;-63
2022/10/06 00:54:57;;;;;;;8.13;2.90;;;;;;;;;;8276408;28;20586;-63
2022/10/06 00:58:57;;;;;;;7.70;2.55;;;;;;;;;;8279188;28;20049;-63
2022/10/06 01:03:02;;;;;;;8.43;3.20;;;;;;;;;;8278943;28;20037;-62
2022/10/06 01:07:02;;;;;;;5.43;2.92;;;;;;;;;;8276657;28;20022;-62
2022/10/06 01:11:02;;;;;;;4.53;2.70;;;;;;;;;;8274298;28;20021;-63
2022/10/06 01:15:03;;;;;;;4.65;3.00;;;;;;;;;;8276415;28;20021;-62
2022/10/06 01:19:05;;;;;;;6.13;3.10;;;;;;;;;;8277424;28;20028;-63
2022/10/06 01:23:07;;;;;;;5.60;2.65;;;;;;;;;;8277771;28;20026;-62
2022/10/06 01:27:08;;;;;;;6.07;3.10;;;;;;;;;;8278607;28;21027;-62
2022/10/06 01:31:08;;;;;;;7.22;2.75;;;;;;;;;;8278533;28;20521;-62
2022/10/06 01:35:09;;;;;;;7.07;2.70;;;;;;;;;;8276936;28;20018;-62
2022/10/06 01:39:09;;;;;;;7.15;3.08;;;;;;;;;;8276881;28;20478;-62
2022/10/06 01:43:09;;;;;;;4.80;2.80;;;;;;;;;;8277701;28;20124;-63
2022/10/06 01:47:09;;;;;;;8.13;2.80;;;;;;;;;;8277348;28;20816;-62
2022/10/06 01:51:14;;;;;;;10.13;3.22;;;;;;;;;;8276017;28;20031;-63
2022/10/06 01:55:16;;;;;;;9.25;2.90;;;;;;;;;;8277254;28;20030;-62
2022/10/06 01:59:16;;;;;;;7.93;3.20;;;;;;;;;;8276757;28;20025;-63
2022/10/06 02:03:16;;;;;;;6.68;1.80;;;;;;;;;;8275178;28;20088;-64
2022/10/06 02:07:16;;;;;;;4.75;1.60;;;;;;;;;;8276581;28;20096;-63
2022/10/06 02:11:18;;;;;;;1.85;1.13;;;;;;;;;;8275552;28;20018;-62
2022/10/06 02:15:19;;;;;;;3.55;1.05;;;;;;;;;;8276185;28;20927;-62
2022/10/06 02:19:19;;;;;;;1.75;0.90;;;;;;;;;;8276757;28;20092;-62
2022/10/06 02:23:19;;;;;;;1.58;0.90;;;;;;;;;;8276376;28;22101;-62
2022/10/06 02:27:20;;;;;;;5.20;0.70;;;;;;;;;;8274873;28;20113;-62
2022/10/06 02:31:20;;;;;;;2.50;0.90;;;;;;;;;;8276567;28;20026;-63
2022/10/06 02:35:20;;;;;;;1.92;0.82;;;;;;;;;;8276101;28;20103;-68
2022/10/06 02:39:20;;;;;;;2.22;0.80;;;;;;;;;;8273939;28;20136;-63
2022/10/06 02:43:21;;;;;;;2.05;0.98;;;;;;;;;;8273147;28;20069;-63
2022/10/06 02:47:21;;;;;;;2.90;0.80;;;;;;;;;;8274126;28;20131;-62
2022/10/06 02:51:21;;;;;;;3.85;0.93;;;;;;;;;;8275623;28;20352;-62
2022/10/06 02:55:22;;;;;;;2.43;0.83;;;;;;;;;;8274505;28;20027;-62
2022/10/06 02:59:22;;;;;;;3.08;1.08;;;;;;;;;;8275186;28;20164;-63
2022/10/06 03:03:22;;;;;;;2.70;0.80;;;;;;;;;;8274966;28;20087;-62
2022/10/06 03:07:22;;;;;;;3.55;1.10;;;;;;;;;;8275511;28;20031;-62
2022/10/06 03:11:26;;;;;;;4.05;0.85;;;;;;;;;;8275807;28;20123;-62
2022/10/06 03:15:27;;;;;;;2.83;0.70;;;;;;;;;;8271876;28;20030;-62
2022/10/06 03:19:27;;;;;;;2.35;0.80;;;;;;;;;;8273611;28;20028;-66
2022/10/06 03:23:28;;;;;;;1.27;0.63;;;;;;;;;;8272999;28;20499;-62
2022/10/06 03:27:28;;;;;;;2.17;0.80;;;;;;;;;;8273551;28;20080;-62
2022/10/06 03:31:28;;;;;;;2.40;0.77;;;;;;;;;;8272541;28;20103;-62
2022/10/06 03:35:28;;;;;;;1.48;0.63;;;;;;;;;;8274340;28;20024;-63
2022/10/06 03:39:29;;;;;;;2.93;0.70;;;;;;;;;;8273572;28;20026;-62
2022/10/06 03:43:29;;;;;;;2.92;0.90;;;;;;;;;;8273925;28;20933;-63
2022/10/06 03:47:29;;;;;;;1.75;0.70;;;;;;;;;;8273595;28;20041;-63
2022/10/06 03:51:33;;;;;;;1.77;0.93;;;;;;;;;;8273917;28;20682;-62
2022/10/06 03:55:33;;;;;;;2.83;0.77;;;;;;;;;;8273587;28;20652;-62
2022/10/06 03:59:33;;;;;;;4.55;1.00;;;;;;;;;;8272981;28;20073;-62
2022/10/06 04:03:34;;;;;;;4.22;0.90;;;;;;;;;;8269705;28;20045;-62
2022/10/06 04:07:34;;;;;;;2.05;0.93;;;;;;;;;;8272170;28;20014;-62
2022/10/06 04:11:36;;;;;;;1.90;0.80;;;;;;;;;;8270034;28;20087;-62
2022/10/06 04:15:37;;;;;;;3.70;1.00;;;;;;;;;;8271346;28;20030;-63
2022/10/06 04:19:37;;;;;;;3.17;0.90;;;;;;;;;;8271295;28;20423;-62
2022/10/06 04:23:37;;;;;;;1.83;0.88;;;;;;;;;;8268923;28;20029;-63
2022/10/06 04:27:38;;;;;;;6.10;0.80;;;;;;;;;;8269716;28;20375;-62
2022/10/06 04:31:39;;;;;;;5.10;1.10;;;;;;;;;;8267794;28;20034;-63
2022/10/06 04:35:39;;;;;;;12.85;1.05;;;;;;;;;;8270995;28;20049;-62
2022/10/06 04:39:40;;;;;;;1.80;0.82;;;;;;;;;;8270974;28;20120;-63
2022/10/06 04:43:40;;;;;;;4.72;1.00;;;;;;;;;;8268552;28;20025;-62
2022/10/06 04:47:40;;;;;;;4.00;1.17;;;;;;;;;;8269812;28;20042;-63
2022/10/06 04:51:40;;;;;;;6.05;0.90;;;;;;;;;;8264524;28;20026;-62
2022/10/06 04:55:40;;;;;;;3.33;0.90;;;;;;;;;;8268986;28;20057;-62
2022/10/06 05:04:00;;;;;;;5.45;1.15;;;;;;;;;;8268683;28;20111;-63
2022/10/06 05:08:01;;;;;;;7.45;1.17;;;;;;;;;;8271301;28;20030;-67
2022/10/06 05:12:01;;;;;;;6.25;1.20;;;;;;;;;;8267068;28;20039;-62
2022/10/06 05:16:01;;;;;;;5.32;1.10;;;;;;;;;;8270088;28;20109;-63
2022/10/06 05:20:02;;;;;;;9.35;1.35;;;;;;;;;;8268329;28;20096;-62
2022/10/06 05:24:02;;;;;;;5.63;1.48;;;;;;;;;;8271882;28;20951;-62
2022/10/06 05:28:03;;;;;;;7.28;1.50;;;;;;;;;;8270388;28;20022;-62
2022/10/06 05:32:03;;;;;;;7.70;1.33;;;;;;;;;;8268148;28;20465;-62
2022/10/06 05:36:11;;;;;;;5.68;1.23;;;;;;;;;;8270358;28;20665;-62
2022/10/06 05:40:12;;;;;;;4.20;1.25;;;;;;;;;;8273320;28;20033;-63
2022/10/06 05:44:12;;;;;;;4.65;1.35;;;;;;;;;;8276341;28;20028;-62
2022/10/06 05:48:12;;;;;;;6.40;1.52;;;;;;;;;;8276797;28;20139;-62
2022/10/06 05:52:12;;;;;;;6.45;1.33;;;;;;;;;;8276354;28;20040;-62
2022/10/06 05:56:14;;;;;;;6.47;1.55;;;;;;;;;;8277029;28;20018;-62
2022/10/06 06:00:14;;;;;;;7.68;1.48;;;;;;;;;;8277382;28;20025;-62
2022/10/06 06:04:15;;;;;;;8.57;1.30;;;;;;;;;;8274332;28;20022;-63
2022/10/06 06:08:15;;;;;;;8.70;1.40;;;;;;;;;;8274590;28;20026;-62
2022/10/06 06:12:15;;;;;;;7.03;1.30;;;;;;;;;;8270485;28;20606;-62
2022/10/06 06:16:15;;;;;;;6.18;1.52;;;;;;;;;;8272251;28;20440;-62
2022/10/06 06:20:16;;;;;;;7.40;1.42;;;;;;;;;;8273661;28;21099;-62
2022/10/06 06:24:16;;;;;;;8.32;1.60;;;;;;;;;;8271605;28;20026;-62
2022/10/06 06:28:17;;;;;;;6.72;1.42;;;;;;;;;;8271437;28;20615;-62
2022/10/06 06:32:17;;;;;;;8.57;1.33;;;;;;;;;;8271008;28;20095;-62
2022/10/06 06:36:19;;;;;;;5.03;1.40;;;;;;;;;;8271425;28;20025;-62
2022/10/06 06:40:19;;;;;;;3.67;1.20;;;;;;;;;;8279586;28;20041;-63
2022/10/06 06:44:19;;;;;;;4.85;1.23;;;;;;;;;;8270322;28;20582;-61
2022/10/06 06:48:20;;;;;;;6.13;1.20;;;;;;;;;;8267129;28;20545;-61
2022/10/06 06:52:20;;;;;;;5.20;1.50;;;;;;;;;;8271115;28;20021;-61
2022/10/06 06:56:20;;;;;;;4.85;1.60;;;;;;;;;;8269352;28;20045;-61
2022/10/06 07:00:22;;;;;;;5.10;1.42;;;;;;;;;;8270407;28;20514;-61
2022/10/06 07:04:22;;;;;;;5.38;1.38;;;;;;;;;;8270358;28;20028;-61
2022/10/06 07:08:23;;;;;;;3.72;1.20;;;;;;;;;;8269972;28;21103;-61
2022/10/06 07:12:24;;;;;;;5.82;1.60;;;;;;;;;;8273205;28;20024;-61
2022/10/06 07:25:06;;;;;;;3.83;1.40;;;;;;;;;;8270265;28;20072;-61
2022/10/06 07:29:06;;;;;;;3.50;1.25;;;;;;;;;;8271929;28;20018;-61
2022/10/06 07:33:07;;;;;;;6.50;1.73;;;;;;;;;;8270818;28;20163;-61
2022/10/06 07:37:07;;;;;;;4.30;1.60;;;;;;;;;;8269088;28;20026;-61
2022/10/06 07:41:07;;;;;;;5.35;1.55;;;;;;;;;;8267848;28;20298;-62
2022/10/06 07:49:26;;;;;;;4.22;1.50;;;;;;;;;;8269625;28;20112;-61
2022/10/06 07:53:27;;;;;;;4.65;1.70;;;;;;;;;;8270993;28;20022;-62
2022/10/06 07:57:34;;;;;;;6.22;2.58;;;;;;;;;;8271607;28;20118;-61
2022/10/06 08:01:34;;;;;;;6.13;1.90;;;;;;;;;;8265828;28;20037;-62
2022/10/06 08:05:35;;;;;;;7.77;2.30;;;;;;;;;;8270867;28;20501;-61
2022/10/06 08:09:36;;;;;;;5.70;1.70;;;;;;;;;;8273305;28;20475;-61
2022/10/06 08:13:37;;;;;;;6.60;1.90;;;;;;;;;;8270387;28;20494;-61
2022/10/06 08:17:38;;;;;;;6.90;1.80;;;;;;;;;;8267949;28;20719;-61
2022/10/06 08:21:38;;;;;;;6.70;2.13;;;;;;;;;;8269101;28;20056;-62
2022/10/06 08:25:42;;;;;;;5.25;1.92;;;;;;;;;;8269494;28;20288;-62
2022/10/06 08:29:42;;;;;;;5.47;2.00;;;;;;;;;;8270298;28;20104;-62
2022/10/06 08:33:43;;;;;;;4.13;1.67;;;;;;;;;;8266149;28;20041;-63
2022/10/06 08:37:44;;;;;;;7.00;2.10;;;;;;;;;;8267242;28;20093;-63
2022/10/06 08:41:49;;;;;;;7.97;2.00;;;;;;;;;;8269998;28;20072;-63
2022/10/06 08:45:51;;;;;;;7.35;1.80;;;;;;;;;;8272486;28;20041;-63
2022/10/06 08:49:53;;;;;;;8.00;1.90;;;;;;;;;;8267824;28;20160;-63
2022/10/06 08:53:58;;;;;;;7.10;1.80;;;;;;;;;;8268028;28;20542;-62
2022/10/06 08:58:13;;;;;;;9.90;1.60;;;;;;;;;;8264440;28;20474;-63
2022/10/06 09:02:25;;;;;;;7.15;1.50;;;;;;;;;;8267417;28;20613;-63
2022/10/06 09:06:58;;;;;;;7.82;2.08;;;;;;;;;;8269233;28;20489;-62
2022/10/06 09:11:05;;;;;;;6.03;1.50;;;;;;;;;;8278126;28;20045;-62
2022/10/06 09:15:18;;;;;;;7.63;1.40;;;;;;;;;;8274841;28;20256;-62
2022/10/06 09:19:22;;;;;;;5.38;1.52;;;;;;;;;;8274382;28;20026;-63
2022/10/06 09:27:44;;;;;;;7.53;1.45;;;;;;;;;;8274053;28;20041;-63
2022/10/06 09:31:51;;;;;;;7.38;1.60;;;;;;;;;;8271410;28;20486;-63
2022/10/06 09:36:05;;;;;;;3.67;1.30;;;;;;;;;;8273056;28;20114;-63
2022/10/06 09:40:25;;;;;;;6.38;1.90;;;;;;;;;;8275492;28;20026;-63
2022/10/06 09:44:27;;;;;;;3.90;1.33;;;;;;;;;;8275577;28;20321;-62
2022/10/06 09:48:28;;;;;;;4.87;1.17;;;;;;;;;;8273508;28;20044;-62
2022/10/06 09:52:28;;;;;;;4.68;1.33;;;;;;;;;;8272386;28;20117;-62
2022/10/06 09:56:28;;;;;;;5.35;1.23;;;;;;;;;;8271100;28;20125;-62
2022/10/06 10:00:35;;;;;;;4.77;1.23;;;;;;;;;;8278301;28;20117;-62
2022/10/06 10:04:39;;;;;;;4.07;1.30;;;;;;;;;;8273676;28;20292;-62
2022/10/06 10:08:39;;;;;;;6.35;1.50;;;;;;;;;;8272049;28;20114;-62
2022/10/06 10:12:47;;;;;;;5.10;1.40;;;;;;;;;;8279248;28;20032;-62
2022/10/06 10:16:48;;;;;;;3.65;1.20;;;;;;;;;;8271394;28;20732;-62
2022/10/06 10:20:50;;;;;;;4.65;1.20;;;;;;;;;;8270241;28;20732;-62
2022/10/06 10:24:59;;;;;;;4.28;1.35;;;;;;;;;;8272342;28;20022;-62
2022/10/06 10:28:59;;;;;;;10.43;1.30;;;;;;;;;;8267584;28;20083;-62
2022/10/06 10:32:59;;;;;;;5.57;1.20;;;;;;;;;;8269892;28;20026;-63
2022/10/06 10:37:14;;;;;;;7.07;1.50;;;;;;;;;;8271546;28;20025;-62
2022/10/06 10:41:21;;;;;;;6.47;1.30;;;;;;;;;;8271407;28;20026;-62
2022/10/06 10:45:23;;;;;;;5.75;1.20;;;;;;;;;;8273553;28;20057;-62
2022/10/06 10:49:27;;;;;;;2.95;1.10;;;;;;;;;;8268506;28;20033;-63
2022/10/06 10:53:42;;;;;;;5.68;1.52;;;;;;;;;;8276523;28;20018;-62
2022/10/06 10:57:42;;;;;;;6.35;1.35;;;;;;;;;;8267039;28;20112;-62
2022/10/06 11:01:46;;;;;;;4.10;1.05;;;;;;;;;;8270583;28;20042;-62
2022/10/06 11:05:46;;;;;;;3.97;1.20;;;;;;;;;;8273929;28;20822;-62
2022/10/06 11:09:52;;;;;;;7.57;1.42;;;;;;;;;;8271225;28;20022;-62
2022/10/06 11:13:55;;;;;;;7.80;1.40;;;;;;;;;;8268971;28;20521;-62
2022/10/06 11:17:59;;;;;;;3.55;1.20;;;;;;;;;;8273675;28;20041;-62
2022/10/06 11:22:13;;;;;;;6.22;1.15;;;;;;;;;;8274393;28;20129;-62
2022/10/06 11:26:20;;;;;;;9.82;1.45;;;;;;;;;;8272295;28;20029;-62
2022/10/06 11:30:25;;;;;;;5.28;1.20;;;;;;;;;;8268653;28;20018;-62
2022/10/06 11:34:25;;;;;;;4.65;1.20;;;;;;;;;;8272669;28;20037;-61
2022/10/06 11:38:25;;;;;;;2.88;1.00;;;;;;;;;;8265365;28;20026;-62
2022/10/06 11:42:42;;;;;;;5.63;1.20;;;;;;;;;;8270335;28;20096;-62
2022/10/06 11:46:47;;;;;;;5.22;1.30;;;;;;;;;;8261132;28;20063;-63
2022/10/06 11:50:51;;;;;;;6.38;1.20;;;;;;;;;;8263109;28;20026;-63
2022/10/06 11:54:52;;;;;;;4.68;1.38;;;;;;;;;;8261631;28;20161;-63
2022/10/06 11:58:52;;;;;;;5.65;1.15;;;;;;;;;;8262668;28;20033;-63
2022/10/06 12:02:53;;;;;;;4.05;1.20;;;;;;;;;;8261567;28;20089;-63
2022/10/06 12:06:55;;;;;;;4.03;1.35;;;;;;;;;;8264877;28;20029;-63
2022/10/06 12:10:56;;;;;;;6.18;1.33;;;;;;;;;;8264108;28;20096;-63
2022/10/06 12:15:02;;;;;;;4.63;1.40;;;;;;;;;;8261108;28;21380;-63
2022/10/06 12:19:18;;;;;;;8.13;1.48;;;;;;;;;;8262944;28;20044;-63
2022/10/06 12:23:37;;;;;;;11.45;1.65;;;;;;;;;;8262947;28;20476;-63
2022/10/06 12:27:47;;;;;;;4.50;1.27;;;;;;;;;;8263323;28;20377;-63
2022/10/06 12:31:53;;;;;;;4.40;0.90;;;;;;;;;;8260347;28;20799;-63
2022/10/06 12:36:00;;;;;;;6.75;1.20;;;;;;;;;;8262225;28;20401;-63
2022/10/06 12:40:19;;;;;;;4.88;1.55;;;;;;;;;;8260532;28;20032;-63
2022/10/06 12:44:24;;;;;;;7.93;1.25;;;;;;;;;;8263180;28;20585;-63
2022/10/06 12:48:43;;;;;;;4.97;1.17;;;;;;;;;;8261219;28;20292;-63
2022/10/06 12:52:52;;;;;;;4.70;1.10;;;;;;;;;;8260844;28;20157;-63
2022/10/06 12:57:11;;;;;;;3.70;1.02;;;;;;;;;;8260990;28;20048;-63
2022/10/06 13:01:12;;;;;;;4.93;1.20;;;;;;;;;;8262668;28;20453;-63
2022/10/06 13:05:13;;;;;;;4.28;1.30;;;;;;;;;;8261499;28;20033;-63
2022/10/06 13:09:13;;;;;;;3.58;1.35;;;;;;;;;;8261478;28;20029;-63
2022/10/06 13:13:22;;;;;;;3.70;0.95;;;;;;;;;;8261456;28;20049;-63
2022/10/06 13:17:23;;;;;;;3.78;1.00;;;;;;;;;;8260907;28;20038;-63
2022/10/06 13:21:23;;;;;;;3.80;1.20;;;;;;;;;;8261776;28;20029;-63
2022/10/06 13:25:32;;;;;;;4.45;1.17;;;;;;;;;;8263372;28;20052;-63
2022/10/06 13:29:32;;;;;;;3.60;1.30;;;;;;;;;;8258973;28;20036;-62
2022/10/06 13:33:39;;;;;;;5.30;1.48;;;;;;;;;;8262739;28;20072;-62
2022/10/06 13:37:39;;;;;;;4.40;1.10;;;;;;;;;;8263088;28;20114;-63
2022/10/06 13:41:44;;;;;;;4.87;1.07;;;;;;;;;;8261466;28;20292;-63
2022/10/06 13:45:47;;;;;;;6.38;1.20;;;;;;;;;;8258416;28;20283;-62
2022/10/06 13:49:52;;;;;;;3.75;1.13;;;;;;;;;;8260635;28;20147;-63
2022/10/06 13:53:53;;;;;;;3.17;1.08;;;;;;;;;;8262519;28;20029;-63
2022/10/06 13:57:57;;;;;;;8.43;1.30;;;;;;;;;;8261974;28;20064;-63
2022/10/06 14:02:17;;;;;;;5.35;1.20;;;;;;;;;;8262627;28;20092;-63
2022/10/06 14:06:20;;;;;;;4.28;1.20;;;;;;;;;;8263300;28;20041;-63
2022/10/06 14:10:22;;;;;;;5.97;1.00;;;;;;;;;;8266434;28;20041;-63
2022/10/06 14:14:22;;;;;;;5.65;1.35;;;;;;;;;;8266141;28;20562;-63
2022/10/06 14:18:25;;;;;;;6.38;1.27;;;;;;;;;;8265733;28;20420;-63
2022/10/06 14:22:33;;;;;;;4.72;1.23;;;;;;;;;;8266025;28;20125;-63
2022/10/06 14:26:33;;;;;;;3.53;1.13;;;;;;;;;;8263881;28;20512;-62
2022/10/06 14:30:33;;;;;;;3.78;0.98;;;;;;;;;;8264746;28;20084;-62
2022/10/06 14:34:34;;;;;;;4.95;1.17;;;;;;;;;;8266085;28;20532;-62
2022/10/06 14:38:35;;;;;;;4.15;1.10;;;;;;;;;;8263960;28;20033;-62
2022/10/06 14:42:35;;;;;;;6.00;1.52;;;;;;;;;;8264183;28;20520;-63
2022/10/06 14:46:36;;;;;;;2.95;0.82;;;;;;;;;;8264828;28;20045;-62
2022/10/06 14:50:37;;;;;;;6.32;1.17;;;;;;;;;;8266292;28;20025;-62
2022/10/06 14:54:37;;;;;;;6.87;1.27;;;;;;;;;;8264934;28;20029;-62
2022/10/06 14:58:38;;;;;;;3.45;1.33;;;;;;;;;;8264566;28;20741;-63
2022/10/06 15:02:38;;;;;;;3.53;1.15;;;;;;;;;;8263425;28;20030;-63
2022/10/06 15:10:58;;;;;;;5.20;1.40;;;;;;;;;;8266329;28;20028;-62
2022/10/06 15:14:58;;;;;;;2.80;0.90;;;;;;;;;;8264365;28;20310;-62
2022/10/06 15:18:58;;;;;;;2.85;1.00;;;;;;;;;;8263278;28;20022;-62
2022/10/06 15:22:59;;;;;;;5.25;1.10;;;;;;;;;;8263154;28;20566;-62
2022/10/06 15:31:22;;;;;;;4.90;1.13;;;;;;;;;;8263659;28;20940;-62
2022/10/06 15:35:22;;;;;;;3.20;1.15;;;;;;;;;;8263254;28;20029;-62
2022/10/06 15:39:24;;;;;;;4.60;1.10;;;;;;;;;;8261428;28;20108;-62
2022/10/06 15:43:53;;;;;;;4.85;1.10;;;;;;;;;;8263547;28;20034;-62
2022/10/06 15:47:45;;;;;;;3.22;1.17;;;;;;;;;;8260670;28;20148;-63
2022/10/06 15:51:50;;;;;;;3.95;1.10;;;;;;;;;;8263924;28;20528;-62
2022/10/06 15:55:50;;;;;;;6.43;1.00;;;;;;;;;;8260948;28;20018;-63
2022/10/06 15:59:50;;;;;;;2.95;1.40;;;;;;;;;;8262772;28;20519;-62
2022/10/06 16:03:52;;;;;;;3.15;1.45;;;;;;;;;;8262258;28;20117;-62
2022/10/06 16:07:52;;;;;;;7.47;1.23;;;;;;;;;;8263283;28;20018;-62
2022/10/06 16:11:52;;;;;;;2.85;0.90;;;;;;;;;;8262560;28;20022;-62
2022/10/06 16:15:53;;;;;;;4.82;1.33;;;;;;;;;;8261557;28;20144;-62
2022/10/06 16:19:53;;;;;;;2.63;0.98;;;;;;;;;;8260227;28;20108;-63
2022/10/06 16:23:54;;;;;;;3.80;1.42;;;;;;;;;;8260978;28;20436;-62
2022/10/06 16:27:54;;;;;;;2.88;1.10;;;;;;;;;;8263738;28;20573;-62
2022/10/06 16:31:54;;;;;;;2.83;1.08;;;;;;;;;;8261542;28;20034;-62
2022/10/06 16:35:55;;;;;;;5.97;1.33;;;;;;;;;;8263072;28;20083;-63
2022/10/06 16:39:55;;;;;;;4.32;1.50;;;;;;;;;;8258871;28;20051;-62
2022/10/06 16:43:56;;;;;;;11.68;1.40;;;;;;;;;;8260701;28;20394;-62
2022/10/06 16:47:56;;;;;;;5.05;1.30;;;;;;;;;;8261472;28;20710;-62
2022/10/06 16:51:56;;;;;;;4.38;1.30;;;;;;;;;;8260373;28;20843;-62
2022/10/06 16:55:56;;;;;;;5.35;1.20;;;;;;;;;;8263536;28;20550;-62
2022/10/06 16:59:57;;;;;;;4.50;1.83;;;;;;;;;;8261891;28;20060;-62
2022/10/06 17:04:03;;;;;;;4.20;2.50;;;;;;;;;;8261127;28;20034;-62
2022/10/06 17:08:04;;;;;;;9.40;3.50;;;;;;;;;;8269413;28;20055;-61
2022/10/06 17:12:04;;;;;;;4.63;2.03;;;;;;;;;;8269999;28;20101;-62
2022/10/06 17:16:06;;;;;;;4.70;1.80;;;;;;;;;;8270186;28;20073;-63
2022/10/06 17:20:07;;;;;;;4.93;1.40;;;;;;;;;;8271380;28;20021;-62
2022/10/06 17:24:07;;;;;;;7.43;1.27;;;;;;;;;;8269017;28;20918;-63
2022/10/06 17:28:07;;;;;;;6.60;1.08;;;;;;;;;;8267128;28;20025;-63
2022/10/06 17:32:08;;;;;;;3.00;0.93;;;;;;;;;;8255711;28;20281;-62
2022/10/06 17:36:10;;;;;;;6.63;1.40;;;;;;;;;;8266340;28;20029;-62
2022/10/06 17:40:10;;;;;;;5.97;1.02;;;;;;;;;;8270636;28;20033;-62
2022/10/06 17:44:17;;;;;;;3.67;1.20;;;;;;;;;;8267079;28;20032;-62
2022/10/06 17:48:17;;;;;;;5.68;1.10;;;;;;;;;;8263687;28;20049;-62
2022/10/06 17:52:18;;;;;;;3.60;1.10;;;;;;;;;;8272287;28;20038;-63
2022/10/06 17:56:21;;;;;;;5.22;1.00;;;;;;;;;;8267501;28;20030;-63
2022/10/06 18:00:21;;;;;;;5.80;1.25;;;;;;;;;;8269993;28;20813;-63
2022/10/06 18:04:22;;;;;;;5.05;1.10;;;;;;;;;;8268857;28;20157;-62
2022/10/06 18:08:24;;;;;;;3.55;1.10;;;;;;;;;;8268016;28;20481;-62
2022/10/06 18:12:24;;;;;;;6.70;1.00;;;;;;;;;;8273294;28;20025;-63
2022/10/06 18:16:26;;;;;;;4.93;1.00;;;;;;;;;;8275259;28;20033;-62
2022/10/06 18:20:29;;;;;;;3.75;1.13;;;;;;;;;;8257794;28;20604;-62
2022/10/06 18:24:30;;;;;;;2.53;1.02;;;;;;;;;;8264963;28;20046;-62
2022/10/06 18:28:30;;;;;;;3.42;0.85;;;;;;;;;;8267275;28;20105;-62
2022/10/06 18:32:30;;;;;;;3.08;0.80;;;;;;;;;;8265120;28;20439;-62
2022/10/06 18:36:31;;;;;;;1.83;0.80;;;;;;;;;;8267638;28;20040;-62
2022/10/06 18:40:31;;;;;;;4.35;0.90;;;;;;;;;;8264218;28;20032;-62
2022/10/06 18:48:59;;;;;;;2.75;0.80;;;;;;;;;;8264484;28;20056;-62
2022/10/06 18:53:00;;;;;;;1.67;0.73;;;;;;;;;;8267179;28;20132;-62
2022/10/06 18:57:00;;;;;;;2.40;0.70;;;;;;;;;;8267583;28;20068;-62
2022/10/06 19:01:02;;;;;;;4.10;0.88;;;;;;;;;;8265639;28;20689;-62
2022/10/06 19:05:03;;;;;;;2.10;0.80;;;;;;;;;;8265896;28;20510;-62
2022/10/06 19:09:04;;;;;;;2.42;0.80;;;;;;;;;;8265168;28;20665;-62
2022/10/06 19:13:04;;;;;;;3.50;1.02;;;;;;;;;;8264092;28;20858;-62
2022/10/06 19:17:12;;;;;;;1.60;0.77;;;;;;;;;;8264277;28;20038;-62
2022/10/06 19:21:12;;;;;;;2.28;0.73;;;;;;;;;;8263444;28;20729;-62
2022/10/06 19:25:13;;;;;;;2.90;0.97;;;;;;;;;;8261390;28;20117;-62
2022/10/06 19:29:14;;;;;;;3.45;0.80;;;;;;;;;;8263885;28;20384;-62
2022/10/06 19:33:14;;;;;;;3.13;0.75;;;;;;;;;;8259948;28;20198;-62
2022/10/06 19:37:14;;;;;;;3.15;0.90;;;;;;;;;;8264592;28;20575;-62
2022/10/06 19:45:34;;;;;;;1.67;0.70;;;;;;;;;;8265145;28;20080;-62
2022/10/06 19:49:34;;;;;;;5.30;1.00;;;;;;;;;;8263765;28;20029;-62
2022/10/06 19:53:34;;;;;;;1.95;0.80;;;;;;;;;;8265283;28;20053;-62
2022/10/06 19:57:35;;;;;;;3.67;0.90;;;;;;;;;;8265207;28;20048;-62
2022/10/06 20:01:35;;;;;;;2.43;0.80;;;;;;;;;;8262580;28;20398;-63
2022/10/06 20:05:37;;;;;;;4.38;1.23;;;;;;;;;;8264307;28;20493;-62
2022/10/06 20:09:37;;;;;;;3.20;1.30;;;;;;;;;;8264419;28;20033;-62
2022/10/06 20:13:38;;;;;;;3.03;1.30;;;;;;;;;;8263698;28;20018;-62
2022/10/06 20:17:40;;;;;;;4.20;1.27;;;;;;;;;;8261238;28;20334;-63
2022/10/06 20:21:40;;;;;;;3.08;1.00;;;;;;;;;;8264431;28;20071;-62
2022/10/06 20:25:40;;;;;;;3.13;1.20;;;;;;;;;;8262061;28;20057;-62
2022/10/06 20:29:41;;;;;;;3.40;0.90;;;;;;;;;;8264670;28;20223;-62
2022/10/06 20:33:42;;;;;;;4.90;1.20;;;;;;;;;;8261521;28;20442;-62
2022/10/06 20:37:42;;;;;;;4.60;1.23;;;;;;;;;;8265089;28;20033;-62
2022/10/06 20:41:43;;;;;;;5.18;1.30;;;;;;;;;;8259348;28;20331;-63
2022/10/06 20:45:43;;;;;;;4.90;1.20;;;;;;;;;;8264552;28;20387;-62
2022/10/06 20:49:43;;;;;;;3.72;1.10;;;;;;;;;;8261336;28;20268;-62
2022/10/06 20:53:43;;;;;;;5.53;1.17;;;;;;;;;;8263421;28;20026;-62
2022/10/06 20:57:43;;;;;;;3.13;1.45;;;;;;;;;;8263385;28;20359;-62
2022/10/06 21:01:44;;;;;;;4.13;1.90;;;;;;;;;;8264561;28;20157;-62
2022/10/06 21:05:51;;;;;;;4.10;1.45;;;;;;;;;;8262122;28;20473;-62
2022/10/06 21:09:51;;;;;;;3.67;1.00;;;;;;;;;;8264925;28;20022;-62
2022/10/06 21:13:54;;;;;;;1.90;0.80;;;;;;;;;;8267585;28;20087;-63
2022/10/06 21:17:54;;;;;;;5.93;1.00;;;;;;;;;;8267347;28;20087;-62
2022/10/06 21:21:55;;;;;;;4.85;0.95;;;;;;;;;;8267936;28;20042;-62
2022/10/06 21:25:55;;;;;;;2.95;0.90;;;;;;;;;;8270786;28;20037;-62
2022/10/06 21:29:55;;;;;;;2.65;1.00;;;;;;;;;;8268198;28;20039;-62
2022/10/06 21:33:56;;;;;;;5.93;1.05;;;;;;;;;;8266537;28;20029;-62
2022/10/06 21:37:56;;;;;;;3.78;1.10;;;;;;;;;;8269318;28;20025;-62
2022/10/06 21:41:56;;;;;;;6.18;1.02;;;;;;;;;;8267010;28;20092;-62
2022/10/06 21:45:56;;;;;;;4.90;1.00;;;;;;;;;;8267065;28;20042;-62
2022/10/06 21:49:56;;;;;;;2.92;1.00;;;;;;;;;;8269672;28;20025;-62
2022/10/06 21:53:57;;;;;;;4.63;0.68;;;;;;;;;;8266321;28;20108;-62
2022/10/06 21:57:59;;;;;;;5.55;0.85;;;;;;;;;;8267672;28;20045;-62
2022/10/06 22:01:59;;;;;;;5.00;1.13;;;;;;;;;;8266546;28;20120;-62
2022/10/06 22:06:03;;;;;;;4.55;0.80;;;;;;;;;;8269420;28;20086;-62
2022/10/06 22:10:04;;;;;;;6.15;0.80;;;;;;;;;;8264542;28;20103;-63
2022/10/06 22:14:07;;;;;;;2.47;0.90;;;;;;;;;;8264214;28;20363;-62
2022/10/06 22:18:07;;;;;;;2.30;0.90;;;;;;;;;;8263126;28;20535;-62
2022/10/06 22:22:07;;;;;;;2.35;0.80;;;;;;;;;;8263764;28;20462;-62
2022/10/06 22:26:08;;;;;;;2.42;0.80;;;;;;;;;;8265431;28;20533;-62
2022/10/06 22:30:08;;;;;;;6.43;1.00;;;;;;;;;;8267359;28;20017;-63
2022/10/06 22:34:10;;;;;;;3.80;0.85;;;;;;;;;;8266110;28;20479;-62
2022/10/06 22:38:10;;;;;;;3.70;1.02;;;;;;;;;;8265930;28;20034;-62
2022/10/06 22:42:10;;;;;;;4.93;1.05;;;;;;;;;;8265378;28;20334;-62
2022/10/06 22:46:11;;;;;;;7.18;1.08;;;;;;;;;;8267188;28;20521;-62
2022/10/06 22:50:11;;;;;;;3.22;0.98;;;;;;;;;;8265914;28;20292;-62
2022/10/06 22:54:14;;;;;;;5.22;0.80;;;;;;;;;;8265412;28;20581;-62
2022/10/06 22:58:15;;;;;;;3.33;0.97;;;;;;;;;;8265158;28;20061;-62
2022/10/06 23:02:15;;;;;;;4.13;0.82;;;;;;;;;;8265308;28;20045;-62
2022/10/06 23:06:16;;;;;;;5.50;1.13;;;;;;;;;;8265356;28;20026;-62
2022/10/06 23:10:17;;;;;;;4.18;1.00;;;;;;;;;;8263982;28;20029;-62
2022/10/06 23:14:17;;;;;;;4.55;0.90;;;;;;;;;;8266431;28;20025;-62
2022/10/06 23:18:18;;;;;;;2.53;0.85;;;;;;;;;;8263845;28;20127;-61
2022/10/06 23:22:18;;;;;;;4.35;0.95;;;;;;;;;;8264709;28;20603;-62
2022/10/06 23:26:19;;;;;;;2.92;1.00;;;;;;;;;;8265983;28;20260;-62
2022/10/06 23:30:19;;;;;;;5.32;1.05;;;;;;;;;;8264521;28;20025;-62
2022/10/06 23:34:19;;;;;;;4.47;0.85;;;;;;;;;;8264760;28;20026;-62
2022/10/06 23:38:19;;;;;;;3.22;0.90;;;;;;;;;;8263896;28;20449;-62
2022/10/06 23:42:19;;;;;;;2.88;1.10;;;;;;;;;;8264849;28;20033;-62
2022/10/06 23:46:20;;;;;;;7.07;1.30;;;;;;;;;;8263530;28;20049;-62
2022/10/06 23:50:20;;;;;;;5.50;1.17;;;;;;;;;;8262672;28;20031;-62
2022/10/06 23:54:20;;;;;;;3.30;0.93;;;;;;;;;;8264165;28;20471;-62
2022/10/06 23:58:21;;;;;;;5.78;1.38;;;;;;;;;;8263170;28;20026;-62
